KRSN

Ruston Regional Airport

Ruston, Louisiana, USA
METAR KRSN 162155Z AUTO 00000KT 10SM CLR 17/09 A3029 RMK AO2 T01650089
Observed Flight Rules
Dec-16 @ 21:55 UTC (20 minutes ago) Visual Flight Rules
Visibility Clouds
10 miles
  • Clear skies
Temperatures Readings
Current 17°C / 63°F
Dewpoint 9°C / 48°F
Humidity 59%
Altimeter 30.29" Hg
Pressure 1026 hPa
Elevation 95
METAR KRSN 162155Z AUTO 00000KT 10SM CLR 17/09 A3029 RMK AO2 T01650089
Observed Flight Rules
Dec-16 @ 21:55 UTC
(20 minutes ago)
VFR
Clouds
  • Clear skies
Temperature Dewpoint
17°C / 63°F 9°C / 48°F
Humidity Altimeter Pressure
59% 30.29" Hg 1026 hPa